sensor_id;sensor_type;location;lat;lon;timestamp;temperature;humidity
21493;DHT22;10908;50.690;4.400;2022-07-29T00:02:18;19.30;57.10
21493;DHT22;10908;50.690;4.400;2022-07-29T00:04:43;19.40;56.90
21493;DHT22;10908;50.690;4.400;2022-07-29T00:07:09;19.40;56.90
21493;DHT22;10908;50.690;4.400;2022-07-29T00:09:35;19.30;57.00
21493;DHT22;10908;50.690;4.400;2022-07-29T00:12:01;19.30;57.00
21493;DHT22;10908;50.690;4.400;2022-07-29T00:14:27;19.20;57.40
21493;DHT22;10908;50.690;4.400;2022-07-29T00:16:54;19.10;57.70
21493;DHT22;10908;50.690;4.400;2022-07-29T00:19:19;19.20;57.60
21493;DHT22;10908;50.690;4.400;2022-07-29T00:21:45;19.10;57.70
21493;DHT22;10908;50.690;4.400;2022-07-29T00:24:11;18.90;58.20
21493;DHT22;10908;50.690;4.400;2022-07-29T00:26:36;19.00;58.40
21493;DHT22;10908;50.690;4.400;2022-07-29T00:29:03;19.10;57.80
21493;DHT22;10908;50.690;4.400;2022-07-29T00:31:30;19.20;57.70
21493;DHT22;10908;50.690;4.400;2022-07-29T00:33:55;19.30;57.60
21493;DHT22;10908;50.690;4.400;2022-07-29T00:36:21;19.10;57.70
21493;DHT22;10908;50.690;4.400;2022-07-29T00:38:48;19.10;57.90
21493;DHT22;10908;50.690;4.400;2022-07-29T00:41:15;19.00;58.10
21493;DHT22;10908;50.690;4.400;2022-07-29T00:43:41;18.90;58.50
21493;DHT22;10908;50.690;4.400;2022-07-29T00:46:07;18.80;58.90
21493;DHT22;10908;50.690;4.400;2022-07-29T00:48:33;18.70;59.20
21493;DHT22;10908;50.690;4.400;2022-07-29T00:51:00;18.60;59.60
21493;DHT22;10908;50.690;4.400;2022-07-29T00:53:27;18.50;59.70
21493;DHT22;10908;50.690;4.400;2022-07-29T00:55:56;18.40;60.10
21493;DHT22;10908;50.690;4.400;2022-07-29T00:58:22;18.30;60.30
21493;DHT22;10908;50.690;4.400;2022-07-29T01:00:49;18.40;60.50
21493;DHT22;10908;50.690;4.400;2022-07-29T01:03:15;18.40;60.20
21493;DHT22;10908;50.690;4.400;2022-07-29T01:05:41;18.40;60.30
21493;DHT22;10908;50.690;4.400;2022-07-29T01:08:08;18.40;60.40
21493;DHT22;10908;50.690;4.400;2022-07-29T01:10:38;18.30;60.70
21493;DHT22;10908;50.690;4.400;2022-07-29T01:13:05;18.40;60.60
21493;DHT22;10908;50.690;4.400;2022-07-29T01:15:33;18.50;60.30
21493;DHT22;10908;50.690;4.400;2022-07-29T01:26:23;18.30;61.30
21493;DHT22;10908;50.690;4.400;2022-07-29T01:37:22;18.30;61.20
21493;DHT22;10908;50.690;4.400;2022-07-29T01:39:51;18.10;61.50
21493;DHT22;10908;50.690;4.400;2022-07-29T01:42:26;18.10;62.10
21493;DHT22;10908;50.690;4.400;2022-07-29T01:47:39;18.00;62.10
21493;DHT22;10908;50.690;4.400;2022-07-29T01:50:08;18.00;62.40
21493;DHT22;10908;50.690;4.400;2022-07-29T01:52:56;17.90;62.40
21493;DHT22;10908;50.690;4.400;2022-07-29T01:55:25;17.80;62.90
21493;DHT22;10908;50.690;4.400;2022-07-29T01:57:52;17.80;63.20
21493;DHT22;10908;50.690;4.400;2022-07-29T02:00:19;17.70;63.90
21493;DHT22;10908;50.690;4.400;2022-07-29T02:02:47;17.70;64.20
21493;DHT22;10908;50.690;4.400;2022-07-29T02:05:16;17.90;63.40
21493;DHT22;10908;50.690;4.400;2022-07-29T02:07:44;18.20;62.50
21493;DHT22;10908;50.690;4.400;2022-07-29T02:10:12;18.40;61.60
21493;DHT22;10908;50.690;4.400;2022-07-29T02:12:39;18.40;61.20
21493;DHT22;10908;50.690;4.400;2022-07-29T02:15:07;18.50;61.10
21493;DHT22;10908;50.690;4.400;2022-07-29T02:17:48;18.20;61.90
21493;DHT22;10908;50.690;4.400;2022-07-29T02:20:16;18.20;62.50
21493;DHT22;10908;50.690;4.400;2022-07-29T02:22:44;18.20;62.20
21493;DHT22;10908;50.690;4.400;2022-07-29T02:25:10;18.30;61.90
21493;DHT22;10908;50.690;4.400;2022-07-29T02:27:39;18.20;62.10
21493;DHT22;10908;50.690;4.400;2022-07-29T02:30:06;18.10;62.30
21493;DHT22;10908;50.690;4.400;2022-07-29T02:32:34;18.00;62.60
21493;DHT22;10908;50.690;4.400;2022-07-29T02:35:01;18.10;62.50
21493;DHT22;10908;50.690;4.400;2022-07-29T02:37:27;17.80;63.40
21493;DHT22;10908;50.690;4.400;2022-07-29T02:39:55;17.70;63.90
21493;DHT22;10908;50.690;4.400;2022-07-29T02:42:22;17.40;64.90
21493;DHT22;10908;50.690;4.400;2022-07-29T02:44:49;17.30;65.60
21493;DHT22;10908;50.690;4.400;2022-07-29T02:50:00;16.90;66.60
21493;DHT22;10908;50.690;4.400;2022-07-29T02:53:12;17.00;66.80
21493;DHT22;10908;50.690;4.400;2022-07-29T02:55:22;16.70;67.80
21493;DHT22;10908;50.690;4.400;2022-07-29T02:58:15;16.60;68.00
21493;DHT22;10908;50.690;4.400;2022-07-29T03:00:46;16.70;67.70
21493;DHT22;10908;50.690;4.400;2022-07-29T03:03:15;16.70;68.10
21493;DHT22;10908;50.690;4.400;2022-07-29T03:05:42;16.60;68.50
21493;DHT22;10908;50.690;4.400;2022-07-29T03:08:10;16.60;68.60
21493;DHT22;10908;50.690;4.400;2022-07-29T03:10:42;16.60;68.30
21493;DHT22;10908;50.690;4.400;2022-07-29T03:13:09;16.60;68.50
21493;DHT22;10908;50.690;4.400;2022-07-29T03:15:35;16.60;68.40
21493;DHT22;10908;50.690;4.400;2022-07-29T03:18:02;16.60;68.50
21493;DHT22;10908;50.690;4.400;2022-07-29T03:20:29;16.50;68.70
21493;DHT22;10908;50.690;4.400;2022-07-29T03:22:54;16.40;69.10
21493;DHT22;10908;50.690;4.400;2022-07-29T03:25:20;16.40;68.80
21493;DHT22;10908;50.690;4.400;2022-07-29T03:27:47;16.80;68.00
21493;DHT22;10908;50.690;4.400;2022-07-29T03:30:13;16.90;67.40
21493;DHT22;10908;50.690;4.400;2022-07-29T03:32:39;16.80;67.80
21493;DHT22;10908;50.690;4.400;2022-07-29T03:35:06;16.80;67.80
21493;DHT22;10908;50.690;4.400;2022-07-29T03:37:32;16.90;67.60
21493;DHT22;10908;50.690;4.400;2022-07-29T03:40:00;17.00;66.90
21493;DHT22;10908;50.690;4.400;2022-07-29T03:42:31;17.40;65.70
21493;DHT22;10908;50.690;4.400;2022-07-29T03:45:01;17.30;65.70
21493;DHT22;10908;50.690;4.400;2022-07-29T03:47:28;17.00;66.50
21493;DHT22;10908;50.690;4.400;2022-07-29T03:50:00;16.70;67.50
21493;DHT22;10908;50.690;4.400;2022-07-29T03:52:27;16.50;68.50
21493;DHT22;10908;50.690;4.400;2022-07-29T03:54:53;16.40;69.10
21493;DHT22;10908;50.690;4.400;2022-07-29T03:57:24;16.40;68.90
21493;DHT22;10908;50.690;4.400;2022-07-29T03:59:51;16.30;69.60
21493;DHT22;10908;50.690;4.400;2022-07-29T04:02:18;16.10;69.80
21493;DHT22;10908;50.690;4.400;2022-07-29T04:04:44;16.00;70.10
21493;DHT22;10908;50.690;4.400;2022-07-29T04:07:13;15.80;71.00
21493;DHT22;10908;50.690;4.400;2022-07-29T04:09:39;15.80;71.60
21493;DHT22;10908;50.690;4.400;2022-07-29T04:12:05;15.80;71.40
21493;DHT22;10908;50.690;4.400;2022-07-29T04:14:32;15.70;71.80
21493;DHT22;10908;50.690;4.400;2022-07-29T04:16:58;15.60;71.90
21493;DHT22;10908;50.690;4.400;2022-07-29T04:19:24;15.50;72.50
21493;DHT22;10908;50.690;4.400;2022-07-29T04:21:50;15.40;72.60
21493;DHT22;10908;50.690;4.400;2022-07-29T04:24:16;15.60;72.40
21493;DHT22;10908;50.690;4.400;2022-07-29T04:26:42;15.70;72.10
21493;DHT22;10908;50.690;4.400;2022-07-29T04:29:08;15.60;72.20
21493;DHT22;10908;50.690;4.400;2022-07-29T04:31:34;15.50;72.70
21493;DHT22;10908;50.690;4.400;2022-07-29T04:34:00;15.60;72.80
21493;DHT22;10908;50.690;4.400;2022-07-29T04:36:25;16.10;71.10
21493;DHT22;10908;50.690;4.400;2022-07-29T04:38:51;16.00;70.90
21493;DHT22;10908;50.690;4.400;2022-07-29T04:41:17;16.30;70.20
21493;DHT22;10908;50.690;4.400;2022-07-29T04:43:42;16.50;69.20
21493;DHT22;10908;50.690;4.400;2022-07-29T04:46:08;16.90;68.30
21493;DHT22;10908;50.690;4.400;2022-07-29T04:48:34;17.30;66.30
21493;DHT22;10908;50.690;4.400;2022-07-29T04:50:59;17.10;66.90
21493;DHT22;10908;50.690;4.400;2022-07-29T04:53:25;17.30;66.90
21493;DHT22;10908;50.690;4.400;2022-07-29T04:55:51;17.70;66.00
21493;DHT22;10908;50.690;4.400;2022-07-29T04:58:17;18.10;63.70
21493;DHT22;10908;50.690;4.400;2022-07-29T05:00:42;18.40;62.70
21493;DHT22;10908;50.690;4.400;2022-07-29T05:03:08;18.40;62.50
21493;DHT22;10908;50.690;4.400;2022-07-29T05:05:34;18.10;63.50
21493;DHT22;10908;50.690;4.400;2022-07-29T05:08:00;17.60;65.60
21493;DHT22;10908;50.690;4.400;2022-07-29T05:10:25;17.40;67.00
21493;DHT22;10908;50.690;4.400;2022-07-29T05:12:51;17.40;67.20
21493;DHT22;10908;50.690;4.400;2022-07-29T05:15:17;17.70;65.70
21493;DHT22;10908;50.690;4.400;2022-07-29T05:17:43;17.70;65.90
21493;DHT22;10908;50.690;4.400;2022-07-29T05:20:09;17.40;66.70
21493;DHT22;10908;50.690;4.400;2022-07-29T05:22:35;17.40;67.20
21493;DHT22;10908;50.690;4.400;2022-07-29T05:25:01;17.50;66.80
21493;DHT22;10908;50.690;4.400;2022-07-29T05:27:27;17.50;66.90
21493;DHT22;10908;50.690;4.400;2022-07-29T05:29:53;17.40;67.80
21493;DHT22;10908;50.690;4.400;2022-07-29T05:32:19;17.60;66.90
21493;DHT22;10908;50.690;4.400;2022-07-29T05:34:44;17.70;66.90
21493;DHT22;10908;50.690;4.400;2022-07-29T05:37:10;17.80;65.80
21493;DHT22;10908;50.690;4.400;2022-07-29T05:39:36;17.90;65.40
21493;DHT22;10908;50.690;4.400;2022-07-29T05:42:02;17.80;64.40
21493;DHT22;10908;50.690;4.400;2022-07-29T05:44:27;17.90;64.70
21493;DHT22;10908;50.690;4.400;2022-07-29T05:46:53;17.80;64.90
21493;DHT22;10908;50.690;4.400;2022-07-29T05:49:19;17.90;64.70
21493;DHT22;10908;50.690;4.400;2022-07-29T05:51:45;17.80;65.00
21493;DHT22;10908;50.690;4.400;2022-07-29T05:54:11;17.40;66.20
21493;DHT22;10908;50.690;4.400;2022-07-29T05:56:39;17.30;67.20
21493;DHT22;10908;50.690;4.400;2022-07-29T05:59:05;17.20;67.50
21493;DHT22;10908;50.690;4.400;2022-07-29T06:01:31;17.30;67.60
21493;DHT22;10908;50.690;4.400;2022-07-29T06:03:56;17.40;67.50
21493;DHT22;10908;50.690;4.400;2022-07-29T06:06:22;17.50;67.70
21493;DHT22;10908;50.690;4.400;2022-07-29T06:08:48;17.50;67.40
21493;DHT22;10908;50.690;4.400;2022-07-29T06:11:13;17.60;67.10
21493;DHT22;10908;50.690;4.400;2022-07-29T06:13:39;17.80;66.70
21493;DHT22;10908;50.690;4.400;2022-07-29T06:16:05;17.80;67.00
21493;DHT22;10908;50.690;4.400;2022-07-29T06:18:30;17.70;66.50
21493;DHT22;10908;50.690;4.400;2022-07-29T06:20:56;17.80;66.90
21493;DHT22;10908;50.690;4.400;2022-07-29T06:23:22;17.90;66.80
21493;DHT22;10908;50.690;4.400;2022-07-29T06:25:48;18.00;66.40
21493;DHT22;10908;50.690;4.400;2022-07-29T06:28:13;18.10;66.50
21493;DHT22;10908;50.690;4.400;2022-07-29T06:30:40;18.00;66.50
21493;DHT22;10908;50.690;4.400;2022-07-29T06:33:05;18.20;66.20
21493;DHT22;10908;50.690;4.400;2022-07-29T06:35:34;18.20;66.50
21493;DHT22;10908;50.690;4.400;2022-07-29T06:38:01;18.40;67.00
21493;DHT22;10908;50.690;4.400;2022-07-29T06:40:27;18.60;66.00
21493;DHT22;10908;50.690;4.400;2022-07-29T06:43:25;18.80;65.30
21493;DHT22;10908;50.690;4.400;2022-07-29T06:45:52;18.90;64.60
21493;DHT22;10908;50.690;4.400;2022-07-29T06:48:17;18.90;64.80
21493;DHT22;10908;50.690;4.400;2022-07-29T06:50:43;18.90;64.90
21493;DHT22;10908;50.690;4.400;2022-07-29T06:53:09;19.10;64.80
21493;DHT22;10908;50.690;4.400;2022-07-29T06:55:35;19.10;64.40
21493;DHT22;10908;50.690;4.400;2022-07-29T06:58:02;19.10;64.40
21493;DHT22;10908;50.690;4.400;2022-07-29T07:00:28;19.20;64.40
21493;DHT22;10908;50.690;4.400;2022-07-29T07:02:53;19.20;64.70
21493;DHT22;10908;50.690;4.400;2022-07-29T07:05:19;19.10;65.10
21493;DHT22;10908;50.690;4.400;2022-07-29T07:07:45;19.20;65.10
21493;DHT22;10908;50.690;4.400;2022-07-29T07:10:10;19.40;64.70
21493;DHT22;10908;50.690;4.400;2022-07-29T07:12:36;19.60;63.80
21493;DHT22;10908;50.690;4.400;2022-07-29T07:15:02;19.80;63.20
21493;DHT22;10908;50.690;4.400;2022-07-29T07:17:28;19.80;62.70
21493;DHT22;10908;50.690;4.400;2022-07-29T07:19:54;19.90;63.00
21493;DHT22;10908;50.690;4.400;2022-07-29T07:22:19;19.90;63.00
21493;DHT22;10908;50.690;4.400;2022-07-29T07:24:48;19.90;62.70
21493;DHT22;10908;50.690;4.400;2022-07-29T07:27:13;20.10;62.70
21493;DHT22;10908;50.690;4.400;2022-07-29T07:29:39;19.90;62.80
21493;DHT22;10908;50.690;4.400;2022-07-29T07:32:06;20.00;62.90
21493;DHT22;10908;50.690;4.400;2022-07-29T07:34:32;20.10;62.80
21493;DHT22;10908;50.690;4.400;2022-07-29T07:36:58;20.10;62.70
21493;DHT22;10908;50.690;4.400;2022-07-29T07:39:24;20.20;62.40
21493;DHT22;10908;50.690;4.400;2022-07-29T07:41:51;20.30;62.00
21493;DHT22;10908;50.690;4.400;2022-07-29T07:44:17;20.30;61.90
21493;DHT22;10908;50.690;4.400;2022-07-29T07:46:43;20.30;61.50
21493;DHT22;10908;50.690;4.400;2022-07-29T07:49:10;20.30;62.10
21493;DHT22;10908;50.690;4.400;2022-07-29T07:51:36;20.40;61.50
21493;DHT22;10908;50.690;4.400;2022-07-29T07:54:02;20.30;62.00
21493;DHT22;10908;50.690;4.400;2022-07-29T07:56:27;20.40;62.00
21493;DHT22;10908;50.690;4.400;2022-07-29T07:58:53;20.40;62.00
21493;DHT22;10908;50.690;4.400;2022-07-29T08:01:19;20.50;61.30
21493;DHT22;10908;50.690;4.400;2022-07-29T08:03:48;20.50;61.50
21493;DHT22;10908;50.690;4.400;2022-07-29T08:06:14;20.60;61.20
21493;DHT22;10908;50.690;4.400;2022-07-29T08:08:40;20.80;61.00
21493;DHT22;10908;50.690;4.400;2022-07-29T08:11:06;20.80;60.10
21493;DHT22;10908;50.690;4.400;2022-07-29T08:13:32;20.90;60.30
21493;DHT22;10908;50.690;4.400;2022-07-29T08:15:58;20.90;60.70
21493;DHT22;10908;50.690;4.400;2022-07-29T08:18:30;20.90;60.20
21493;DHT22;10908;50.690;4.400;2022-07-29T08:20:56;20.90;60.00
21493;DHT22;10908;50.690;4.400;2022-07-29T08:23:23;21.10;59.40
21493;DHT22;10908;50.690;4.400;2022-07-29T08:25:49;21.00;60.30
21493;DHT22;10908;50.690;4.400;2022-07-29T08:28:16;21.10;60.00
21493;DHT22;10908;50.690;4.400;2022-07-29T08:30:42;21.30;60.10
21493;DHT22;10908;50.690;4.400;2022-07-29T08:33:07;21.30;59.60
21493;DHT22;10908;50.690;4.400;2022-07-29T08:35:33;21.30;59.80
21493;DHT22;10908;50.690;4.400;2022-07-29T08:37:59;21.30;60.70
21493;DHT22;10908;50.690;4.400;2022-07-29T08:40:24;21.40;60.40
21493;DHT22;10908;50.690;4.400;2022-07-29T08:42:50;21.50;59.50
21493;DHT22;10908;50.690;4.400;2022-07-29T08:45:16;21.50;59.50
21493;DHT22;10908;50.690;4.400;2022-07-29T08:47:44;21.50;58.70
21493;DHT22;10908;50.690;4.400;2022-07-29T08:50:11;21.60;58.50
21493;DHT22;10908;50.690;4.400;2022-07-29T08:52:38;21.70;58.40
21493;DHT22;10908;50.690;4.400;2022-07-29T08:55:05;21.70;57.70
21493;DHT22;10908;50.690;4.400;2022-07-29T08:57:33;21.70;56.60
21493;DHT22;10908;50.690;4.400;2022-07-29T09:00:00;21.80;56.60
21493;DHT22;10908;50.690;4.400;2022-07-29T09:02:29;21.80;56.80
21493;DHT22;10908;50.690;4.400;2022-07-29T09:05:00;21.80;56.30
21493;DHT22;10908;50.690;4.400;2022-07-29T09:07:25;21.80;55.60
21493;DHT22;10908;50.690;4.400;2022-07-29T09:09:51;21.80;56.10
21493;DHT22;10908;50.690;4.400;2022-07-29T09:12:17;21.90;55.40
21493;DHT22;10908;50.690;4.400;2022-07-29T09:14:42;21.90;54.20
21493;DHT22;10908;50.690;4.400;2022-07-29T09:17:08;22.00;55.30
21493;DHT22;10908;50.690;4.400;2022-07-29T09:19:36;22.10;54.70
21493;DHT22;10908;50.690;4.400;2022-07-29T09:22:06;22.10;54.70
21493;DHT22;10908;50.690;4.400;2022-07-29T09:27:09;22.30;53.40
21493;DHT22;10908;50.690;4.400;2022-07-29T09:29:35;22.30;53.70
21493;DHT22;10908;50.690;4.400;2022-07-29T09:32:06;22.40;51.80
21493;DHT22;10908;50.690;4.400;2022-07-29T09:34:33;22.40;51.20
21493;DHT22;10908;50.690;4.400;2022-07-29T09:36:59;22.40;51.20
21493;DHT22;10908;50.690;4.400;2022-07-29T09:41:55;22.40;52.40
21493;DHT22;10908;50.690;4.400;2022-07-29T09:44:23;22.40;52.20
21493;DHT22;10908;50.690;4.400;2022-07-29T09:47:06;22.40;52.30
21493;DHT22;10908;50.690;4.400;2022-07-29T09:49:55;22.40;51.90
21493;DHT22;10908;50.690;4.400;2022-07-29T09:52:24;22.50;51.10
21493;DHT22;10908;50.690;4.400;2022-07-29T09:54:49;22.60;49.90
21493;DHT22;10908;50.690;4.400;2022-07-29T09:57:42;22.60;48.60
21493;DHT22;10908;50.690;4.400;2022-07-29T10:00:10;22.60;49.60
21493;DHT22;10908;50.690;4.400;2022-07-29T10:02:38;22.70;49.80
21493;DHT22;10908;50.690;4.400;2022-07-29T10:05:06;22.70;50.00
21493;DHT22;10908;50.690;4.400;2022-07-29T10:07:53;22.80;50.40
21493;DHT22;10908;50.690;4.400;2022-07-29T10:10:33;22.90;50.30
21493;DHT22;10908;50.690;4.400;2022-07-29T10:13:18;22.90;49.30
21493;DHT22;10908;50.690;4.400;2022-07-29T10:15:44;23.10;47.80
21493;DHT22;10908;50.690;4.400;2022-07-29T10:18:12;23.20;48.60
21493;DHT22;10908;50.690;4.400;2022-07-29T10:20:38;23.20;48.10
21493;DHT22;10908;50.690;4.400;2022-07-29T10:23:05;23.20;47.30
21493;DHT22;10908;50.690;4.400;2022-07-29T10:25:31;23.10;47.90
21493;DHT22;10908;50.690;4.400;2022-07-29T10:27:57;23.10;48.30
21493;DHT22;10908;50.690;4.400;2022-07-29T10:30:24;23.20;48.10
21493;DHT22;10908;50.690;4.400;2022-07-29T10:35:56;23.30;47.70
21493;DHT22;10908;50.690;4.400;2022-07-29T10:46:23;23.60;48.20
21493;DHT22;10908;50.690;4.400;2022-07-29T10:52:06;23.60;47.00
21493;DHT22;10908;50.690;4.400;2022-07-29T10:54:42;23.60;46.00
21493;DHT22;10908;50.690;4.400;2022-07-29T10:59:50;23.70;48.20
21493;DHT22;10908;50.690;4.400;2022-07-29T11:02:46;23.90;48.70
21493;DHT22;10908;50.690;4.400;2022-07-29T11:05:17;24.00;45.30
21493;DHT22;10908;50.690;4.400;2022-07-29T11:10:38;23.90;47.00
21493;DHT22;10908;50.690;4.400;2022-07-29T11:13:04;23.90;46.50
21493;DHT22;10908;50.690;4.400;2022-07-29T11:15:56;23.90;45.90
21493;DHT22;10908;50.690;4.400;2022-07-29T11:18:23;23.90;46.40
21493;DHT22;10908;50.690;4.400;2022-07-29T11:20:49;24.00;47.10
21493;DHT22;10908;50.690;4.400;2022-07-29T11:23:30;24.10;46.20
21493;DHT22;10908;50.690;4.400;2022-07-29T11:26:18;24.10;44.70
21493;DHT22;10908;50.690;4.400;2022-07-29T11:29:14;24.10;46.40
21493;DHT22;10908;50.690;4.400;2022-07-29T11:31:44;24.20;46.50
21493;DHT22;10908;50.690;4.400;2022-07-29T11:34:26;24.10;46.20
21493;DHT22;10908;50.690;4.400;2022-07-29T11:39:37;24.40;44.90
21493;DHT22;10908;50.690;4.400;2022-07-29T11:47:22;24.30;44.90
21493;DHT22;10908;50.690;4.400;2022-07-29T11:49:50;24.40;44.20
21493;DHT22;10908;50.690;4.400;2022-07-29T11:52:17;24.40;44.60
21493;DHT22;10908;50.690;4.400;2022-07-29T11:54:43;24.40;44.30
21493;DHT22;10908;50.690;4.400;2022-07-29T11:57:10;24.40;44.80
21493;DHT22;10908;50.690;4.400;2022-07-29T11:59:40;24.60;42.30
21493;DHT22;10908;50.690;4.400;2022-07-29T12:02:07;24.60;41.70
21493;DHT22;10908;50.690;4.400;2022-07-29T12:04:33;24.80;42.60
21493;DHT22;10908;50.690;4.400;2022-07-29T12:07:00;24.80;42.20
21493;DHT22;10908;50.690;4.400;2022-07-29T12:09:25;24.80;42.90
21493;DHT22;10908;50.690;4.400;2022-07-29T12:11:58;24.90;42.30
21493;DHT22;10908;50.690;4.400;2022-07-29T12:14:33;25.00;42.40
21493;DHT22;10908;50.690;4.400;2022-07-29T12:16:59;25.10;42.80
21493;DHT22;10908;50.690;4.400;2022-07-29T12:19:26;25.10;42.80
21493;DHT22;10908;50.690;4.400;2022-07-29T12:21:54;25.00;42.90
21493;DHT22;10908;50.690;4.400;2022-07-29T12:24:20;25.00;43.20
21493;DHT22;10908;50.690;4.400;2022-07-29T12:26:57;25.00;43.60
21493;DHT22;10908;50.690;4.400;2022-07-29T12:29:23;24.90;42.40
21493;DHT22;10908;50.690;4.400;2022-07-29T12:31:53;24.80;42.90
21493;DHT22;10908;50.690;4.400;2022-07-29T12:34:23;24.90;43.30
21493;DHT22;10908;50.690;4.400;2022-07-29T12:36:52;24.90;42.40
21493;DHT22;10908;50.690;4.400;2022-07-29T12:39:18;24.90;42.60
21493;DHT22;10908;50.690;4.400;2022-07-29T12:41:44;24.90;41.90
21493;DHT22;10908;50.690;4.400;2022-07-29T12:44:10;24.80;42.30
21493;DHT22;10908;50.690;4.400;2022-07-29T12:46:36;24.70;42.60
21493;DHT22;10908;50.690;4.400;2022-07-29T12:49:02;24.60;41.80
21493;DHT22;10908;50.690;4.400;2022-07-29T12:51:33;24.60;41.90
21493;DHT22;10908;50.690;4.400;2022-07-29T12:54:14;24.70;42.30
21493;DHT22;10908;50.690;4.400;2022-07-29T12:56:41;24.80;42.10
21493;DHT22;10908;50.690;4.400;2022-07-29T12:59:19;24.90;42.00
21493;DHT22;10908;50.690;4.400;2022-07-29T13:01:51;25.10;41.80
21493;DHT22;10908;50.690;4.400;2022-07-29T13:04:28;25.30;41.40
21493;DHT22;10908;50.690;4.400;2022-07-29T13:07:02;25.40;40.70
21493;DHT22;10908;50.690;4.400;2022-07-29T13:09:42;25.30;40.60
21493;DHT22;10908;50.690;4.400;2022-07-29T13:12:10;25.30;40.50
21493;DHT22;10908;50.690;4.400;2022-07-29T13:14:38;25.30;40.80
21493;DHT22;10908;50.690;4.400;2022-07-29T13:17:13;25.40;40.70
21493;DHT22;10908;50.690;4.400;2022-07-29T13:19:47;25.60;41.00
21493;DHT22;10908;50.690;4.400;2022-07-29T13:22:15;25.90;40.30
21493;DHT22;10908;50.690;4.400;2022-07-29T13:24:51;26.10;39.60
21493;DHT22;10908;50.690;4.400;2022-07-29T13:27:19;25.80;39.10
21493;DHT22;10908;50.690;4.400;2022-07-29T13:29:45;25.80;39.60
21493;DHT22;10908;50.690;4.400;2022-07-29T13:32:12;25.80;40.20
21493;DHT22;10908;50.690;4.400;2022-07-29T13:34:39;25.70;39.80
21493;DHT22;10908;50.690;4.400;2022-07-29T13:37:04;25.60;39.70
21493;DHT22;10908;50.690;4.400;2022-07-29T13:39:30;25.50;40.40
21493;DHT22;10908;50.690;4.400;2022-07-29T13:41:56;25.50;40.60
21493;DHT22;10908;50.690;4.400;2022-07-29T13:44:22;25.60;39.90
21493;DHT22;10908;50.690;4.400;2022-07-29T13:46:47;25.80;41.00
21493;DHT22;10908;50.690;4.400;2022-07-29T13:49:13;25.90;40.60
21493;DHT22;10908;50.690;4.400;2022-07-29T13:51:39;25.90;40.20
21493;DHT22;10908;50.690;4.400;2022-07-29T13:54:05;26.10;40.40
21493;DHT22;10908;50.690;4.400;2022-07-29T13:56:31;26.20;40.50
21493;DHT22;10908;50.690;4.400;2022-07-29T13:58:57;26.30;40.00
21493;DHT22;10908;50.690;4.400;2022-07-29T14:01:23;26.30;39.70
21493;DHT22;10908;50.690;4.400;2022-07-29T14:03:49;26.30;40.40
21493;DHT22;10908;50.690;4.400;2022-07-29T14:06:14;26.20;40.00
21493;DHT22;10908;50.690;4.400;2022-07-29T14:08:40;26.10;39.90
21493;DHT22;10908;50.690;4.400;2022-07-29T14:11:06;26.10;40.50
21493;DHT22;10908;50.690;4.400;2022-07-29T14:13:32;26.10;39.60
21493;DHT22;10908;50.690;4.400;2022-07-29T14:15:58;26.10;39.00
21493;DHT22;10908;50.690;4.400;2022-07-29T14:18:24;25.90;38.90
21493;DHT22;10908;50.690;4.400;2022-07-29T14:20:50;25.80;39.40
21493;DHT22;10908;50.690;4.400;2022-07-29T14:23:16;25.70;40.70
21493;DHT22;10908;50.690;4.400;2022-07-29T14:25:42;25.70;41.30
21493;DHT22;10908;50.690;4.400;2022-07-29T14:28:08;25.80;39.80
21493;DHT22;10908;50.690;4.400;2022-07-29T14:30:33;26.00;39.70
21493;DHT22;10908;50.690;4.400;2022-07-29T14:32:59;26.00;39.40
21493;DHT22;10908;50.690;4.400;2022-07-29T14:35:25;25.90;39.40
21493;DHT22;10908;50.690;4.400;2022-07-29T14:37:50;25.80;39.70
21493;DHT22;10908;50.690;4.400;2022-07-29T14:40:16;25.80;39.60
21493;DHT22;10908;50.690;4.400;2022-07-29T14:42:42;25.90;38.60
21493;DHT22;10908;50.690;4.400;2022-07-29T14:45:08;26.10;39.10
21493;DHT22;10908;50.690;4.400;2022-07-29T14:47:34;26.20;38.90
21493;DHT22;10908;50.690;4.400;2022-07-29T14:50:00;26.30;37.30
21493;DHT22;10908;50.690;4.400;2022-07-29T14:52:26;26.30;37.30
21493;DHT22;10908;50.690;4.400;2022-07-29T14:54:52;26.10;36.70
21493;DHT22;10908;50.690;4.400;2022-07-29T14:57:17;26.10;36.50
21493;DHT22;10908;50.690;4.400;2022-07-29T14:59:43;26.10;36.70
21493;DHT22;10908;50.690;4.400;2022-07-29T15:02:08;26.10;36.90
21493;DHT22;10908;50.690;4.400;2022-07-29T15:04:34;26.10;36.60
21493;DHT22;10908;50.690;4.400;2022-07-29T15:07:00;26.00;36.50
21493;DHT22;10908;50.690;4.400;2022-07-29T15:09:25;25.80;36.30
21493;DHT22;10908;50.690;4.400;2022-07-29T15:11:51;25.70;37.50
21493;DHT22;10908;50.690;4.400;2022-07-29T15:14:17;25.80;37.00
21493;DHT22;10908;50.690;4.400;2022-07-29T15:16:42;25.70;35.80
21493;DHT22;10908;50.690;4.400;2022-07-29T15:19:09;25.80;37.00
21493;DHT22;10908;50.690;4.400;2022-07-29T15:21:35;25.70;37.00
21493;DHT22;10908;50.690;4.400;2022-07-29T15:24:00;25.70;37.40
21493;DHT22;10908;50.690;4.400;2022-07-29T15:26:26;25.80;38.80
21493;DHT22;10908;50.690;4.400;2022-07-29T15:28:52;25.80;38.80
21493;DHT22;10908;50.690;4.400;2022-07-29T15:31:18;25.70;37.50
21493;DHT22;10908;50.690;4.400;2022-07-29T15:33:44;25.80;38.10
21493;DHT22;10908;50.690;4.400;2022-07-29T15:36:10;25.80;38.10
21493;DHT22;10908;50.690;4.400;2022-07-29T15:38:38;25.60;38.40
21493;DHT22;10908;50.690;4.400;2022-07-29T15:41:06;25.60;38.90
21493;DHT22;10908;50.690;4.400;2022-07-29T15:46:25;25.80;37.30
21493;DHT22;10908;50.690;4.400;2022-07-29T15:49:09;25.80;37.50
21493;DHT22;10908;50.690;4.400;2022-07-29T15:51:35;25.80;37.00
21493;DHT22;10908;50.690;4.400;2022-07-29T15:54:02;25.70;37.80
21493;DHT22;10908;50.690;4.400;2022-07-29T15:56:28;25.70;36.40
21493;DHT22;10908;50.690;4.400;2022-07-29T15:58:54;25.70;37.30
21493;DHT22;10908;50.690;4.400;2022-07-29T16:01:19;25.80;37.80
21493;DHT22;10908;50.690;4.400;2022-07-29T16:03:45;25.80;37.10
21493;DHT22;10908;50.690;4.400;2022-07-29T16:06:11;25.90;37.10
21493;DHT22;10908;50.690;4.400;2022-07-29T16:08:37;26.00;36.30
21493;DHT22;10908;50.690;4.400;2022-07-29T16:11:03;25.90;36.90
21493;DHT22;10908;50.690;4.400;2022-07-29T16:13:28;25.80;36.70
21493;DHT22;10908;50.690;4.400;2022-07-29T16:15:54;25.70;37.30
21493;DHT22;10908;50.690;4.400;2022-07-29T16:18:20;25.80;38.30
21493;DHT22;10908;50.690;4.400;2022-07-29T16:20:45;25.80;37.60
21493;DHT22;10908;50.690;4.400;2022-07-29T16:23:11;25.80;37.50
21493;DHT22;10908;50.690;4.400;2022-07-29T16:25:40;25.80;37.90
21493;DHT22;10908;50.690;4.400;2022-07-29T16:28:06;25.80;37.80
21493;DHT22;10908;50.690;4.400;2022-07-29T16:30:33;25.80;37.30
21493;DHT22;10908;50.690;4.400;2022-07-29T16:32:59;25.70;38.20